Pagina principale
METAR-TAF:

METAR-TAF

Aeroporti :

Sal, Capo Verde

latitudine: 16-44N, longitudine: 022-57W, altezza: 54 m

Osservazione

Il bollettino è stato emesso 22 minuti fa, alle 19:00 UTC
Vento 12 kt da nord/nord-est
Temperature 22°C
Umidità 69%
Pressione 1014 hPa
Visibilità 10 km o più
Poco nuvoloso ad un'altezza di 1300 ft
Nubi sparse ad un'altezza di 1600 ft
Nuvoloso ad un'altezza di 7000 ft

METAR: GVAC 241900Z 03012KT 9999 FEW013 SCT016 BKN070 22/16 Q1014 NOSIG

Ora: 18:22 (19:22 UTC)

Previsione

Il bollettino è stato emesso 2 ore e 22 minuti fa, alle 17:00 UTC
Previsione valida dal 24 alle 18 UTC al 25 alle 24 UTC
Vento 10 kt da nord/nord-est
Visibilità: 9000 m
Poco nuvoloso ad un'altezza di 1400 ft
Probabilità 40% :
Temporaneamente
dal 25 alle 10 UTC al 25 alle 19 UTC
Vento 20 kt da est/nord-est
Visibilità: 4500 m
foschia

TAF: GVAC 241700Z 2418/2524 03010KT 9000 FEW014 PROB40 TEMPO 2510/2519 06020KT 4500 HZ NSC

Osservazioni e previsioni meteorologiche di più di 4000 aeroporti (messaggi METAR e TAF).

Le stazioni disponibili sono rappresentate dai dischi gialli e rossi sulla carta.

Puntare il mouse per vedere il nome della stazione.

Clicca sopra per visualizzare le osservazioni e previsioni meteorologiche.

Per cambiare la mappa : fare clic sui pulsanti verdi con una croce nera per ingrandire, il pulsante verde con un trattino per diminuire, o sulla freccia verde per le mappe adiacenti.


METAR-TAF: